createdAt,value
2023-02-14T00:01:20.620Z,13.80
2023-02-14T00:03:49.500Z,13.80
2023-02-14T00:06:17.254Z,13.80
2023-02-14T00:08:45.019Z,13.80
2023-02-14T00:11:13.645Z,13.80
2023-02-14T00:14:01.123Z,13.80
2023-02-14T00:16:28.528Z,13.80
2023-02-14T00:19:05.089Z,13.80
2023-02-14T00:21:36.132Z,13.80
2023-02-14T00:24:14.757Z,13.80
2023-02-14T00:26:42.999Z,13.70
2023-02-14T00:29:16.179Z,13.70
2023-02-14T00:31:44.690Z,13.70
2023-02-14T00:34:12.438Z,13.70
2023-02-14T00:36:39.877Z,13.60
2023-02-14T00:39:09.712Z,13.60
2023-02-14T00:41:38.219Z,13.60
2023-02-14T00:44:06.298Z,13.60
2023-02-14T00:46:33.935Z,13.60
2023-02-14T00:49:01.994Z,13.60
2023-02-14T00:51:30.154Z,13.60
2023-02-14T00:53:57.576Z,13.60
2023-02-14T00:56:24.932Z,13.60
2023-02-14T00:58:52.249Z,13.60
2023-02-14T01:01:19.822Z,13.60
2023-02-14T01:03:47.362Z,13.60
2023-02-14T01:06:15.216Z,13.60
2023-02-14T01:08:42.679Z,13.50
2023-02-14T01:11:20.180Z,13.50
2023-02-14T01:13:49.132Z,13.50
2023-02-14T01:16:20.994Z,13.50
2023-02-14T01:18:49.340Z,13.50
2023-02-14T01:21:23.363Z,13.40
2023-02-14T01:23:53.200Z,13.40
2023-02-14T01:26:22.246Z,13.50
2023-02-14T01:28:50.444Z,13.40
2023-02-14T01:31:24.070Z,13.40
2023-02-14T01:33:52.034Z,13.40
2023-02-14T01:36:23.822Z,13.40
2023-02-14T01:38:54.078Z,13.40
2023-02-14T01:41:24.147Z,13.40
2023-02-14T01:43:56.029Z,13.40
2023-02-14T01:46:26.193Z,13.40
2023-02-14T01:48:59.038Z,13.40
2023-02-14T01:51:26.562Z,13.40
2023-02-14T01:53:54.993Z,13.40
2023-02-14T01:56:29.730Z,13.30
2023-02-14T01:59:00.893Z,13.30
2023-02-14T02:01:29.973Z,13.30
2023-02-14T02:04:02.521Z,13.30
2023-02-14T02:06:35.650Z,13.30
2023-02-14T02:09:45.121Z,13.30
2023-02-14T02:12:12.818Z,13.20
2023-02-14T02:14:41.058Z,13.30
2023-02-14T02:17:28.668Z,13.20
2023-02-14T02:20:18.203Z,13.30
2023-02-14T02:23:04.035Z,13.20
2023-02-14T02:26:04.912Z,13.20
2023-02-14T02:29:02.994Z,13.20
2023-02-14T02:31:51.812Z,13.20
2023-02-14T02:34:28.223Z,13.20
2023-02-14T02:37:14.402Z,13.20
2023-02-14T02:40:05.811Z,13.10
2023-02-14T02:42:55.720Z,13.10
2023-02-14T02:45:57.677Z,13.10
2023-02-14T02:48:29.612Z,13.10
2023-02-14T02:51:19.712Z,13.10
2023-02-14T02:54:29.278Z,13.10
2023-02-14T02:56:59.993Z,13.10
2023-02-14T02:59:39.318Z,13.10
2023-02-14T03:02:25.051Z,13.10
2023-02-14T03:04:56.727Z,13.00
2023-02-14T03:07:41.330Z,13.00
2023-02-14T03:10:15.159Z,13.00
2023-02-14T03:12:56.560Z,13.00
2023-02-14T03:15:39.029Z,13.00
2023-02-14T03:18:47.969Z,13.00
2023-02-14T03:21:23.435Z,13.00
2023-02-14T03:24:15.647Z,13.00
2023-02-14T03:27:07.128Z,13.00
2023-02-14T03:29:46.007Z,13.00
2023-02-14T03:32:17.713Z,13.00
2023-02-14T03:34:57.186Z,12.90
2023-02-14T03:37:40.619Z,12.90
2023-02-14T03:40:18.457Z,12.90
2023-02-14T03:42:56.335Z,12.90
2023-02-14T03:45:32.315Z,12.90
2023-02-14T03:48:04.219Z,12.90
2023-02-14T03:50:33.208Z,12.80
2023-02-14T03:53:01.427Z,12.80
2023-02-14T03:56:09.321Z,12.80
2023-02-14T03:58:43.126Z,12.80
2023-02-14T04:01:28.345Z,12.80
2023-02-14T04:03:57.782Z,12.70
2023-02-14T04:06:25.171Z,12.70
2023-02-14T04:08:52.514Z,12.70
2023-02-14T04:11:20.225Z,12.70
2023-02-14T04:13:47.582Z,12.70
2023-02-14T04:16:14.886Z,12.60
2023-02-14T04:19:01.098Z,12.60
2023-02-14T04:21:28.491Z,12.60
2023-02-14T04:23:55.850Z,12.60
2023-02-14T04:26:23.147Z,12.60
2023-02-14T04:28:50.407Z,12.60
2023-02-14T04:31:18.009Z,12.50
2023-02-14T04:33:48.074Z,12.50
2023-02-14T04:36:15.433Z,12.50
2023-02-14T04:38:42.753Z,12.50
2023-02-14T04:41:10.116Z,12.50
2023-02-14T04:43:37.521Z,12.50
2023-02-14T04:46:05.076Z,12.50
2023-02-14T04:48:32.383Z,12.50
2023-02-14T04:51:00.055Z,12.40
2023-02-14T04:53:27.667Z,12.40
2023-02-14T04:55:55.019Z,12.40
2023-02-14T04:58:22.400Z,12.40
2023-02-14T05:00:49.774Z,12.40
2023-02-14T05:03:17.162Z,12.40
2023-02-14T05:05:44.492Z,12.40
2023-02-14T05:08:12.044Z,12.30
2023-02-14T05:10:39.442Z,12.30
2023-02-14T05:13:06.910Z,12.30
2023-02-14T05:15:34.865Z,12.30
2023-02-14T05:18:05.718Z,12.20
2023-02-14T05:20:33.118Z,12.30
2023-02-14T05:23:03.358Z,12.30
2023-02-14T05:25:31.364Z,12.20
2023-02-14T05:27:58.631Z,12.20
2023-02-14T05:30:28.164Z,12.20
2023-02-14T05:32:55.666Z,12.20
2023-02-14T05:35:23.073Z,12.20
2023-02-14T05:37:50.632Z,12.20
2023-02-14T05:40:18.192Z,12.20
2023-02-14T05:42:45.690Z,12.20
2023-02-14T05:45:13.032Z,12.20
2023-02-14T05:47:40.644Z,12.20
2023-02-14T05:50:09.035Z,12.20
2023-02-14T05:52:37.731Z,12.20
2023-02-14T05:55:05.800Z,12.10
2023-02-14T05:57:33.319Z,12.10
2023-02-14T06:00:00.774Z,12.10
2023-02-14T06:02:28.355Z,12.10
2023-02-14T06:04:55.823Z,12.10
2023-02-14T06:07:23.384Z,12.00
2023-02-14T06:09:50.785Z,12.00
2023-02-14T06:12:18.096Z,12.00
2023-02-14T06:14:45.441Z,12.00
2023-02-14T06:17:12.917Z,12.00
2023-02-14T06:19:40.229Z,12.00
2023-02-14T06:22:07.509Z,12.00
2023-02-14T06:24:34.822Z,11.90
2023-02-14T06:27:02.373Z,12.00
2023-02-14T06:29:29.865Z,12.00
2023-02-14T06:31:57.283Z,12.00
2023-02-14T06:34:24.611Z,10.70
2023-02-14T06:36:51.942Z,9.90
2023-02-14T06:39:19.227Z,9.30
2023-02-14T06:41:46.388Z,9.00
2023-02-14T06:44:13.537Z,8.80
2023-02-14T06:46:40.743Z,8.70
2023-02-14T06:49:07.997Z,8.60
2023-02-14T06:51:35.359Z,8.60
2023-02-14T06:54:02.642Z,9.50
2023-02-14T06:56:30.131Z,10.00
2023-02-14T06:58:57.545Z,10.40
2023-02-14T07:01:24.979Z,10.70
2023-02-14T07:03:52.368Z,10.90
2023-02-14T07:06:19.699Z,11.10
2023-02-14T07:08:47.142Z,11.20
2023-02-14T07:11:14.538Z,11.20
2023-02-14T07:13:43.828Z,11.30
2023-02-14T07:16:11.424Z,11.40
2023-02-14T07:18:38.766Z,11.50
2023-02-14T07:21:06.181Z,11.70
2023-02-14T07:23:33.544Z,12.10
2023-02-14T07:26:00.892Z,12.40
2023-02-14T07:28:28.147Z,12.80
2023-02-14T07:30:55.475Z,13.40
2023-02-14T07:33:22.826Z,13.50
2023-02-14T07:35:50.104Z,13.50
2023-02-14T07:38:17.546Z,13.60
2023-02-14T07:40:44.866Z,13.60
2023-02-14T07:43:12.255Z,13.70
2023-02-14T07:45:39.888Z,13.80
2023-02-14T07:48:07.552Z,13.90
2023-02-14T07:50:34.890Z,14.00
2023-02-14T07:53:02.445Z,14.20
2023-02-14T07:55:29.779Z,14.30
2023-02-14T07:57:57.176Z,14.40
2023-02-14T08:00:24.531Z,14.60
2023-02-14T08:02:51.952Z,14.70
2023-02-14T08:05:19.618Z,14.80
2023-02-14T08:07:46.888Z,15.00
2023-02-14T08:10:15.304Z,15.00
2023-02-14T08:13:00.766Z,15.20
2023-02-14T08:15:52.024Z,15.30
2023-02-14T08:18:21.498Z,15.50
2023-02-14T08:20:50.016Z,15.70
2023-02-14T08:23:19.042Z,15.90
2023-02-14T08:25:48.336Z,16.10
2023-02-14T08:28:16.400Z,16.20
2023-02-14T08:30:45.073Z,16.40
2023-02-14T08:33:12.537Z,16.60
2023-02-14T08:35:39.924Z,16.80
2023-02-14T08:38:07.855Z,17.00
2023-02-14T08:40:37.132Z,17.10
2023-02-14T08:43:06.831Z,17.30
2023-02-14T08:45:34.389Z,17.50
2023-02-14T08:48:12.644Z,17.70
2023-02-14T08:50:40.396Z,17.90
2023-02-14T08:53:12.601Z,18.10
2023-02-14T08:55:40.290Z,18.30
2023-02-14T08:58:07.940Z,18.40
2023-02-14T09:00:35.409Z,18.60
2023-02-14T09:03:03.025Z,18.80
2023-02-14T09:05:30.419Z,19.10
2023-02-14T09:07:57.742Z,19.30
2023-02-14T09:10:25.646Z,19.50
2023-02-14T09:12:52.998Z,19.70
2023-02-14T09:15:20.522Z,19.90
2023-02-14T09:17:47.953Z,20.00
2023-02-14T09:20:16.422Z,20.20
2023-02-14T09:22:43.969Z,20.10
2023-02-14T09:25:11.684Z,19.30
2023-02-14T09:27:39.652Z,18.80
2023-02-14T09:30:09.815Z,18.70
2023-02-14T09:32:37.170Z,18.40
2023-02-14T09:35:04.808Z,18.40
2023-02-14T09:37:50.633Z,18.50
2023-02-14T09:40:20.249Z,18.50
2023-02-14T09:42:56.739Z,18.70
2023-02-14T09:45:29.763Z,18.80
2023-02-14T09:48:29.302Z,18.90
2023-02-14T09:51:20.081Z,18.70
2023-02-14T09:53:52.394Z,19.00
2023-02-14T09:56:37.332Z,19.10
2023-02-14T09:59:36.832Z,19.20
2023-02-14T10:02:29.771Z,19.30
2023-02-14T10:05:17.735Z,19.50
2023-02-14T10:08:04.217Z,19.40
2023-02-14T10:10:41.445Z,19.30
2023-02-14T10:13:27.663Z,19.50
2023-02-14T10:16:03.756Z,19.60
2023-02-14T10:18:46.514Z,19.70
2023-02-14T10:21:46.454Z,19.60
2023-02-14T10:24:40.209Z,19.70
2023-02-14T10:27:28.704Z,19.80
2023-02-14T10:29:56.184Z,19.70
2023-02-14T10:33:01.768Z,19.80
2023-02-14T10:35:50.954Z,20.10
2023-02-14T10:38:29.955Z,20.20
2023-02-14T10:41:27.821Z,20.20
2023-02-14T10:43:57.848Z,20.40
2023-02-14T10:46:59.079Z,20.30
2023-02-14T10:49:37.819Z,20.40
2023-02-14T10:52:35.672Z,20.50
2023-02-14T10:55:31.577Z,20.70
2023-02-14T10:58:04.265Z,20.70
2023-02-14T11:00:41.496Z,20.80
2023-02-14T11:03:10.906Z,20.90
2023-02-14T11:05:47.585Z,21.00
2023-02-14T11:08:28.924Z,21.10
2023-02-14T11:11:03.270Z,21.00
2023-02-14T11:13:39.026Z,21.20
2023-02-14T11:16:08.930Z,21.30
2023-02-14T11:18:39.569Z,21.40
2023-02-14T11:21:09.613Z,21.40
2023-02-14T11:23:46.097Z,21.40
2023-02-14T11:26:29.574Z,21.50
2023-02-14T11:29:00.086Z,21.50
2023-02-14T11:31:33.242Z,21.60
2023-02-14T11:34:04.836Z,21.70
2023-02-14T11:36:39.209Z,21.70
2023-02-14T11:39:30.413Z,21.70
2023-02-14T11:42:00.951Z,21.90
2023-02-14T11:44:30.310Z,21.90
2023-02-14T11:47:15.806Z,21.90
2023-02-14T11:49:58.221Z,22.10
2023-02-14T11:52:29.808Z,22.10
2023-02-14T11:54:59.060Z,22.20
2023-02-14T11:57:34.753Z,22.10
2023-02-14T12:00:12.388Z,22.20
2023-02-14T12:02:51.032Z,21.80
2023-02-14T12:05:26.892Z,21.70
2023-02-14T12:07:57.605Z,22.00
2023-02-14T12:10:31.949Z,22.00
2023-02-14T12:13:22.076Z,22.00
2023-02-14T12:15:52.100Z,22.30
2023-02-14T12:18:35.494Z,22.40
2023-02-14T12:21:24.906Z,22.50
2023-02-14T12:24:03.392Z,22.40
2023-02-14T12:26:52.664Z,22.40
2023-02-14T12:29:28.729Z,22.50
2023-02-14T12:32:01.712Z,22.60
2023-02-14T12:34:29.776Z,22.70
2023-02-14T12:37:09.580Z,22.60
2023-02-14T12:39:49.039Z,22.70
2023-02-14T12:42:47.421Z,22.70
2023-02-14T12:45:46.589Z,22.70
2023-02-14T12:48:48.866Z,22.60
2023-02-14T12:51:21.913Z,22.30
2023-02-14T12:53:57.771Z,22.10
2023-02-14T12:56:31.497Z,22.00
2023-02-14T12:59:13.935Z,21.90
2023-02-14T13:01:59.899Z,21.70
2023-02-14T13:04:41.000Z,21.60
2023-02-14T13:07:17.735Z,21.50
2023-02-14T13:10:09.695Z,21.50
2023-02-14T13:13:01.872Z,21.50
2023-02-14T13:15:29.647Z,21.70
2023-02-14T13:18:03.345Z,21.70
2023-02-14T13:20:31.085Z,21.60
2023-02-14T13:23:04.383Z,21.70
2023-02-14T13:25:37.601Z,21.70
2023-02-14T13:28:10.166Z,21.70
2023-02-14T13:30:38.891Z,21.70
2023-02-14T13:33:44.477Z,21.60
2023-02-14T13:36:13.701Z,21.60
2023-02-14T13:38:45.914Z,21.50
2023-02-14T13:41:15.196Z,21.50
2023-02-14T13:44:02.550Z,21.50
2023-02-14T13:46:32.682Z,21.40
2023-02-14T13:49:33.173Z,21.30
2023-02-14T13:52:06.335Z,21.30
2023-02-14T13:54:47.412Z,21.30
2023-02-14T13:57:36.696Z,21.30
2023-02-14T14:00:19.516Z,21.20
2023-02-14T14:02:55.000Z,21.30
2023-02-14T14:05:35.482Z,21.30
2023-02-14T14:08:21.233Z,21.30
2023-02-14T14:10:51.138Z,21.20
2023-02-14T14:13:40.372Z,21.10
2023-02-14T14:16:28.569Z,21.10
2023-02-14T14:19:02.003Z,21.00
2023-02-14T14:21:35.212Z,20.90
2023-02-14T14:24:24.497Z,20.90
2023-02-14T14:26:57.697Z,20.80
2023-02-14T14:29:32.669Z,20.70
2023-02-14T14:32:07.655Z,20.60
2023-02-14T14:34:34.989Z,20.50
2023-02-14T14:37:08.014Z,20.40
2023-02-14T14:39:36.457Z,20.40
2023-02-14T14:42:24.636Z,20.20
2023-02-14T14:45:01.781Z,20.00
2023-02-14T14:47:54.084Z,19.80
2023-02-14T14:50:28.613Z,19.70
2023-02-14T14:52:58.527Z,19.60
2023-02-14T14:55:30.581Z,19.50
2023-02-14T14:58:04.203Z,19.40
2023-02-14T15:00:37.829Z,19.40
2023-02-14T15:03:11.538Z,19.40
2023-02-14T15:05:50.418Z,19.20
2023-02-14T15:08:22.496Z,19.20
2023-02-14T15:11:02.288Z,19.10
2023-02-14T15:13:49.909Z,19.00
2023-02-14T15:16:27.352Z,18.80
2023-02-14T15:19:17.301Z,18.70
2023-02-14T15:21:46.092Z,18.60
2023-02-14T15:24:16.006Z,18.50
2023-02-14T15:26:46.595Z,18.40
2023-02-14T15:29:31.895Z,18.50
2023-02-14T15:32:03.019Z,18.50
2023-02-14T15:34:36.067Z,18.50
2023-02-14T15:37:06.590Z,18.30
2023-02-14T15:39:40.565Z,18.20
2023-02-14T15:42:26.006Z,18.30
2023-02-14T15:45:17.129Z,18.40
2023-02-14T15:47:47.353Z,18.40
2023-02-14T15:50:27.935Z,18.40
2023-02-14T15:53:08.830Z,18.50
2023-02-14T15:55:36.956Z,18.50
2023-02-14T15:58:12.224Z,18.40
2023-02-14T16:00:43.126Z,18.40
2023-02-14T16:03:18.899Z,18.30
2023-02-14T16:05:48.091Z,18.20
2023-02-14T16:08:35.484Z,18.20
2023-02-14T16:11:05.144Z,18.20
2023-02-14T16:13:36.619Z,18.10
2023-02-14T16:16:05.315Z,18.10
2023-02-14T16:18:38.859Z,18.00
2023-02-14T16:21:21.655Z,18.00
2023-02-14T16:24:07.477Z,17.90
2023-02-14T16:26:43.537Z,17.90
2023-02-14T16:29:13.750Z,17.80
2023-02-14T16:34:40.875Z,17.80
2023-02-14T16:37:19.011Z,17.80
2023-02-14T16:39:46.715Z,17.70
2023-02-14T16:42:17.644Z,17.60
2023-02-14T16:44:45.544Z,17.60
2023-02-14T16:47:14.465Z,17.60
2023-02-14T16:49:42.288Z,17.60
2023-02-14T16:52:14.447Z,17.50
2023-02-14T16:54:42.022Z,17.40
2023-02-14T16:57:18.733Z,17.40
2023-02-14T16:59:46.413Z,17.30
2023-02-14T17:02:14.013Z,17.30
2023-02-14T17:04:41.939Z,17.30
2023-02-14T17:07:09.543Z,17.30
2023-02-14T17:09:40.785Z,17.20
2023-02-14T17:12:15.232Z,17.10
2023-02-14T17:14:47.798Z,17.10
2023-02-14T17:17:15.791Z,17.00
2023-02-14T17:19:43.891Z,17.00
2023-02-14T17:22:13.604Z,17.00
2023-02-14T17:24:41.491Z,16.90
2023-02-14T17:27:08.810Z,16.90
2023-02-14T17:29:36.341Z,16.90
2023-02-14T17:32:03.725Z,16.80
2023-02-14T17:34:34.882Z,16.80
2023-02-14T17:37:02.925Z,16.70
2023-02-14T17:39:30.337Z,16.70
2023-02-14T17:41:58.128Z,16.70
2023-02-14T17:44:26.069Z,16.60
2023-02-14T17:46:54.698Z,16.60
2023-02-14T17:49:21.918Z,16.60
2023-02-14T17:51:49.083Z,16.50
2023-02-14T17:54:16.267Z,16.50
2023-02-14T17:56:43.404Z,16.50
2023-02-14T17:59:10.571Z,16.40
2023-02-14T18:01:37.868Z,16.40
2023-02-14T18:04:05.740Z,16.40
2023-02-14T18:06:33.584Z,16.40
2023-02-14T18:09:04.934Z,16.40
2023-02-14T18:11:32.295Z,16.40
2023-02-14T18:13:59.870Z,16.30
2023-02-14T18:16:27.216Z,16.30
2023-02-14T18:18:55.018Z,16.30
2023-02-14T18:21:24.526Z,16.30
2023-02-14T18:23:52.051Z,16.20
2023-02-14T18:26:19.580Z,16.20
2023-02-14T18:28:47.066Z,16.20
2023-02-14T18:31:16.772Z,16.20
2023-02-14T18:33:46.967Z,16.10
2023-02-14T18:36:17.525Z,16.00
2023-02-14T18:38:46.656Z,16.00
2023-02-14T18:41:16.904Z,16.20
2023-02-14T18:43:45.156Z,16.30
2023-02-14T18:46:18.536Z,16.50
2023-02-14T18:48:46.429Z,16.40
2023-02-14T18:51:26.259Z,16.40
2023-02-14T18:53:55.851Z,16.40
2023-02-14T18:56:27.145Z,16.40
2023-02-14T18:59:00.207Z,16.40
2023-02-14T19:01:30.532Z,16.40
2023-02-14T19:03:59.988Z,16.40
2023-02-14T19:06:29.585Z,16.40
2023-02-14T19:08:57.534Z,16.30
2023-02-14T19:11:29.509Z,16.30
2023-02-14T19:13:58.340Z,16.30
2023-02-14T19:16:33.122Z,16.30
2023-02-14T19:19:02.700Z,16.30
2023-02-14T19:21:33.691Z,16.20
2023-02-14T19:24:02.895Z,16.20
2023-02-14T19:26:32.943Z,16.20
2023-02-14T19:29:02.971Z,16.20
2023-02-14T19:31:31.005Z,16.20
2023-02-14T19:33:58.313Z,16.20
2023-02-14T19:36:25.700Z,16.20
2023-02-14T19:38:54.185Z,16.30
2023-02-14T19:41:22.936Z,16.30
2023-02-14T19:43:51.339Z,16.20
2023-02-14T19:46:19.610Z,16.20
2023-02-14T19:48:47.448Z,16.20
2023-02-14T19:51:20.486Z,16.10
2023-02-14T19:53:47.912Z,16.10
2023-02-14T19:56:18.914Z,16.10
2023-02-14T19:58:46.349Z,16.10
2023-02-14T20:01:20.757Z,16.10
2023-02-14T20:03:47.947Z,16.00
2023-02-14T20:06:15.515Z,16.00
2023-02-14T20:08:42.635Z,16.00
2023-02-14T20:11:28.411Z,16.00
2023-02-14T20:13:55.754Z,16.00
2023-02-14T20:16:27.094Z,16.00
2023-02-14T20:18:54.527Z,15.90
2023-02-14T20:21:28.327Z,15.90
2023-02-14T20:24:00.907Z,15.90
2023-02-14T20:26:29.035Z,15.90
2023-02-14T20:28:58.687Z,15.90
2023-02-14T20:31:26.058Z,15.90
2023-02-14T20:33:53.346Z,15.90
2023-02-14T20:36:20.489Z,15.80
2023-02-14T20:38:47.883Z,15.80
2023-02-14T20:41:18.169Z,15.80
2023-02-14T20:43:45.310Z,15.80
2023-02-14T20:46:12.515Z,15.80
2023-02-14T20:48:39.664Z,15.80
2023-02-14T20:51:10.232Z,15.80
2023-02-14T20:53:38.157Z,15.70
2023-02-14T20:56:05.685Z,15.70
2023-02-14T20:58:33.611Z,15.80
2023-02-14T21:01:11.328Z,15.70
2023-02-14T21:03:39.457Z,15.70
2023-02-14T21:06:09.553Z,15.70
2023-02-14T21:08:37.738Z,15.60
2023-02-14T21:11:05.542Z,15.70
2023-02-14T21:13:32.817Z,15.60
2023-02-14T21:16:16.567Z,15.60
2023-02-14T21:18:48.095Z,15.60
2023-02-14T21:21:17.994Z,15.60
2023-02-14T21:23:45.237Z,15.60
2023-02-14T21:26:13.603Z,15.60
2023-02-14T21:28:41.117Z,15.50
2023-02-14T21:31:09.823Z,15.50
2023-02-14T21:33:37.499Z,15.50
2023-02-14T21:36:08.475Z,15.50
2023-02-14T21:38:36.248Z,15.50
2023-02-14T21:41:05.155Z,15.50
2023-02-14T21:43:36.297Z,15.40
2023-02-14T21:46:05.143Z,15.40
2023-02-14T21:48:51.327Z,15.40
2023-02-14T21:51:18.890Z,15.40
2023-02-14T21:53:46.078Z,15.40
2023-02-14T21:56:17.984Z,15.40
2023-02-14T21:58:46.170Z,15.40
2023-02-14T22:01:17.307Z,15.30
2023-02-14T22:03:44.821Z,15.30
2023-02-14T22:06:13.283Z,15.30
2023-02-14T22:08:40.826Z,15.30
2023-02-14T22:11:09.316Z,15.30
2023-02-14T22:13:36.542Z,15.20
2023-02-14T22:16:04.635Z,15.20
2023-02-14T22:18:32.195Z,15.20
2023-02-14T22:21:06.417Z,15.20
2023-02-14T22:23:34.321Z,15.20
2023-02-14T22:26:10.703Z,15.20
2023-02-14T22:28:37.805Z,15.10
2023-02-14T22:31:05.287Z,15.20
2023-02-14T22:33:32.609Z,15.10
2023-02-14T22:36:00.513Z,15.10
2023-02-14T22:38:28.213Z,15.10
2023-02-14T22:40:55.866Z,15.10
2023-02-14T22:43:23.375Z,15.10
2023-02-14T22:45:50.634Z,15.00
2023-02-14T22:48:17.901Z,15.00
2023-02-14T22:50:45.044Z,15.00
2023-02-14T22:53:12.228Z,15.00
2023-02-14T22:55:39.872Z,15.00
2023-02-14T22:58:07.305Z,14.90
2023-02-14T23:00:34.523Z,14.90
2023-02-14T23:03:01.713Z,14.90
2023-02-14T23:05:28.944Z,14.90
2023-02-14T23:07:56.094Z,14.90
2023-02-14T23:10:23.206Z,14.90
2023-02-14T23:13:08.714Z,14.90
2023-02-14T23:15:54.344Z,14.80
2023-02-14T23:18:41.263Z,14.80
2023-02-14T23:21:31.513Z,14.80
2023-02-14T23:23:58.729Z,14.80
2023-02-14T23:26:25.875Z,14.70
2023-02-14T23:28:53.090Z,14.70
2023-02-14T23:31:20.285Z,14.70
2023-02-14T23:33:50.368Z,14.70
2023-02-14T23:36:17.730Z,14.70
2023-02-14T23:38:44.900Z,14.70
2023-02-14T23:44:24.375Z,14.70
2023-02-14T23:46:52.933Z,14.60
2023-02-14T23:49:20.486Z,14.60
2023-02-14T23:51:48.171Z,14.60
2023-02-14T23:54:16.128Z,14.60
2023-02-14T23:56:43.626Z,14.50
2023-02-14T23:59:11.120Z,14.60
